Time;durP1;ratioP1;P1;durP2;ratioP2;P2;SDS_P1;SDS_P2;PMS_P1;PMS_P2;Temp;Humidity;BMP_temperature;BMP_pressure;BME280_temperature;BME280_humidity;BME280_pressure;Samples;Min_cycle;Max_cycle;Signal;HPM_P1;HPM_P2
2022/11/10 00:01:14;;;;;;;10.35;1.90;;;;;;;10.59;100.00;99233.06;5024849;28;20038;-86
2022/11/10 00:03:41;;;;;;;8.07;1.77;;;;;;;10.64;100.00;99225.75;5026758;28;20049;-86
2022/11/10 00:06:08;;;;;;;14.43;3.15;;;;;;;10.67;100.00;99248.28;5027569;28;20053;-86
2022/11/10 00:08:35;;;;;;;10.90;1.95;;;;;;;10.77;100.00;99259.88;5023195;28;20053;-85
2022/11/10 00:11:06;;;;;;;7.95;1.92;;;;;;;10.65;100.00;99252.78;5030207;28;20046;-85
2022/11/10 00:16:59;;;;;;;8.32;2.15;;;;;;;10.92;100.00;99265.91;5030616;28;20053;-85
2022/11/10 00:19:08;;;;;;;8.32;1.95;;;;;;;10.99;100.00;99271.63;5024477;28;20060;-86
2022/11/10 00:21:37;;;;;;;8.57;2.33;;;;;;;11.02;100.00;99266.19;5031254;28;20389;-86
2022/11/10 00:24:04;;;;;;;8.45;1.60;;;;;;;10.90;100.00;99272.19;5030333;28;20425;-86
2022/11/10 00:26:31;;;;;;;8.40;2.00;;;;;;;10.99;100.00;99280.31;5029966;28;20061;-85
2022/11/10 00:28:58;;;;;;;8.13;2.13;;;;;;;10.94;100.00;99282.41;5017254;28;20094;-86
2022/11/10 00:31:27;;;;;;;7.03;1.85;;;;;;;10.87;100.00;99251.44;5024729;28;20045;-85
2022/11/10 00:33:54;;;;;;;5.47;1.50;;;;;;;10.84;100.00;99265.56;5020499;28;20057;-86
2022/11/10 00:36:21;;;;;;;11.02;1.80;;;;;;;11.10;100.00;99281.41;5019738;28;20053;-86
2022/11/10 00:38:51;;;;;;;7.47;1.50;;;;;;;11.19;100.00;99278.22;5030923;28;20622;-86
2022/11/10 00:41:18;;;;;;;7.30;1.50;;;;;;;11.02;100.00;99274.88;5029279;28;20107;-86
2022/11/10 00:43:45;;;;;;;6.30;1.58;;;;;;;11.10;100.00;99274.41;5030261;28;20103;-85
2022/11/10 00:46:12;;;;;;;5.32;1.42;;;;;;;11.19;100.00;99271.22;5028740;28;20050;-86
2022/11/10 00:48:39;;;;;;;6.05;1.70;;;;;;;11.14;100.00;99272.44;5027519;28;20064;-86
2022/11/10 00:51:06;;;;;;;6.30;1.55;;;;;;;11.08;100.00;99276.28;5029188;28;20046;-86
2022/11/10 00:53:33;;;;;;;5.45;1.48;;;;;;;11.26;100.00;99283.91;5028315;28;20454;-86
2022/11/10 00:56:00;;;;;;;3.88;1.20;;;;;;;11.05;100.00;99286.09;5022156;28;20111;-86
2022/11/10 00:58:27;;;;;;;10.43;1.60;;;;;;;11.18;100.00;99294.88;5038906;28;20802;-86
2022/11/10 01:01:04;;;;;;;8.50;1.70;;;;;;;11.07;100.00;99285.09;5027255;28;20050;-86
2022/11/10 01:03:32;;;;;;;5.03;1.27;;;;;;;11.13;100.00;99295.16;5029923;28;20115;-86
2022/11/10 01:06:04;;;;;;;5.15;1.27;;;;;;;11.25;100.00;99290.94;5024098;28;20049;-86
2022/11/10 01:08:31;;;;;;;4.07;1.40;;;;;;;11.24;100.00;99283.16;5015524;28;20487;-86
2022/11/10 01:11:08;;;;;;;4.50;1.30;;;;;;;11.37;100.00;99292.78;5027943;28;20072;-86
2022/11/10 01:13:35;;;;;;;6.72;1.73;;;;;;;11.26;100.00;99283.91;5031807;28;20053;-86
2022/11/10 01:16:14;;;;;;;6.18;1.58;;;;;;;11.34;100.00;99281.66;5025601;28;20408;-87
2022/11/10 01:18:41;;;;;;;4.55;1.33;;;;;;;11.19;100.00;99304.41;5018658;28;20053;-85
2022/11/10 01:21:08;;;;;;;7.38;1.20;;;;;;;11.23;100.00;99295.44;5024322;28;20046;-86
2022/11/10 01:23:38;;;;;;;4.85;1.92;;;;;;;11.35;100.00;99310.38;5031141;28;20053;-86
2022/11/10 01:26:06;;;;;;;6.38;1.40;;;;;;;11.31;100.00;99324.59;5028335;28;20103;-86
2022/11/10 01:28:35;;;;;;;3.13;1.23;;;;;;;11.33;100.00;99321.88;5032037;28;20054;-86
2022/11/10 01:31:05;;;;;;;7.18;1.38;;;;;;;11.42;100.00;99284.63;5029224;28;20053;-87
2022/11/10 01:33:32;;;;;;;2.63;1.10;;;;;;;11.58;100.00;99298.41;5026975;28;20062;-86
2022/11/10 01:35:58;;;;;;;4.78;1.27;;;;;;;11.39;100.00;99297.94;5018753;28;20642;-86
2022/11/10 01:38:27;;;;;;;6.47;1.17;;;;;;;11.61;100.00;99293.91;5027210;28;20053;-87
2022/11/10 01:40:54;;;;;;;3.85;1.20;;;;;;;11.55;100.00;99282.06;5023775;28;20550;-86
2022/11/10 01:43:22;;;;;;;6.05;1.58;;;;;;;11.44;100.00;99295.84;5026930;28;20443;-87
2022/11/10 01:46:14;;;;;;;7.10;1.42;;;;;;;11.48;100.00;99278.16;5029385;28;20053;-86
2022/11/10 01:48:56;;;;;;;5.88;1.83;;;;;;;11.60;100.00;99279.97;5015700;28;20050;-86
2022/11/10 01:51:28;;;;;;;4.15;1.20;;;;;;;11.61;100.00;99305.22;5029830;28;20467;-86
2022/11/10 01:54:00;;;;;;;4.23;1.30;;;;;;;11.62;100.00;99295.63;5030042;28;20054;-87
2022/11/10 01:56:31;;;;;;;2.92;1.10;;;;;;;11.58;100.00;99287.94;5019018;28;20499;-86
2022/11/10 01:59:02;;;;;;;3.42;0.95;;;;;;;11.69;100.00;99299.50;5028287;28;20466;-87
2022/11/10 02:01:29;;;;;;;2.72;1.30;;;;;;;11.68;100.00;99285.53;5028022;28;20091;-87
2022/11/10 02:04:00;;;;;;;3.33;1.20;;;;;;;11.74;100.00;99266.81;5015710;28;20053;-86
2022/11/10 02:06:32;;;;;;;3.63;1.00;;;;;;;11.80;100.00;99269.97;5025514;28;20046;-87
2022/11/10 02:08:58;;;;;;;4.00;1.13;;;;;;;11.65;100.00;99280.53;5026953;28;20565;-86
2022/11/10 02:11:27;;;;;;;4.70;1.42;;;;;;;11.71;100.00;99293.22;5017360;28;20060;-87
2022/11/10 02:13:54;;;;;;;3.67;1.20;;;;;;;11.58;100.00;99287.09;5026155;28;20050;-87
2022/11/10 02:16:22;;;;;;;7.65;1.20;;;;;;;11.59;100.00;99284.34;5020922;28;20096;-87
2022/11/10 02:18:48;;;;;;;7.28;1.48;;;;;;;11.55;100.00;99289.91;5041241;28;20053;-87
2022/11/10 02:21:16;;;;;;;4.00;1.40;;;;;;;11.74;100.00;99279.91;5025293;28;20049;-87
2022/11/10 02:23:53;;;;;;;5.65;1.30;;;;;;;11.91;100.00;99283.22;5022249;28;20075;-86
2022/11/10 02:26:26;;;;;;;3.80;1.30;;;;;;;11.87;100.00;99264.19;5023435;28;20485;-86
2022/11/10 02:28:53;;;;;;;4.72;1.10;;;;;;;11.92;100.00;99271.81;5029367;28;20045;-85
2022/11/10 02:31:20;;;;;;;2.35;1.15;;;;;;;11.84;100.00;99274.88;5017813;28;20402;-86
2022/11/10 02:33:47;;;;;;;1.85;0.90;;;;;;;11.94;100.00;99259.44;5028933;28;20054;-86
2022/11/10 02:36:14;;;;;;;3.45;1.60;;;;;;;11.80;100.00;99249.00;5029005;28;20416;-86
2022/11/10 02:38:40;;;;;;;5.65;1.30;;;;;;;11.93;100.00;99244.63;5033101;28;20566;-87
2022/11/10 02:41:07;;;;;;;3.53;1.40;;;;;;;12.10;100.00;99254.81;5033367;28;20053;-86
2022/11/10 02:43:34;;;;;;;7.07;1.65;;;;;;;12.02;100.00;99246.63;5029383;28;20050;-86
2022/11/10 02:46:01;;;;;;;6.75;1.48;;;;;;;12.09;100.00;99240.03;5029053;28;20091;-86
2022/11/10 02:48:28;;;;;;;5.50;1.60;;;;;;;12.10;100.00;99261.88;5032177;28;20057;-86
2022/11/10 02:50:54;;;;;;;4.78;1.70;;;;;;;12.15;100.00;99246.66;5028620;28;20068;-84
2022/11/10 02:53:21;;;;;;;6.55;1.58;;;;;;;12.05;100.00;99229.84;5041780;28;20103;-86
2022/11/10 02:55:49;;;;;;;4.82;1.40;;;;;;;12.10;100.00;99225.97;5024142;28;20041;-86
2022/11/10 02:58:15;;;;;;;5.38;1.60;;;;;;;12.44;100.00;99247.25;5033847;28;20049;-85
2022/11/10 03:00:42;;;;;;;4.93;1.50;;;;;;;12.35;100.00;99259.22;5024125;28;21603;-86
2022/11/10 03:03:09;;;;;;;4.68;1.67;;;;;;;12.44;100.00;99249.88;5028705;28;20162;-86
2022/11/10 03:05:36;;;;;;;5.75;1.70;;;;;;;12.49;100.00;99253.03;5019375;28;20488;-86
2022/11/10 03:08:03;;;;;;;6.35;1.48;;;;;;;12.49;100.00;99239.91;5027163;28;20103;-86
2022/11/10 03:10:30;;;;;;;3.20;1.38;;;;;;;12.68;100.00;99246.53;5013593;28;20053;-86
2022/11/10 03:13:00;;;;;;;4.43;1.30;;;;;;;12.65;100.00;99244.09;5025199;28;20119;-86
2022/11/10 03:15:27;;;;;;;6.53;1.30;;;;;;;12.58;100.00;99225.31;5031362;28;20594;-86
2022/11/10 03:17:55;;;;;;;4.75;1.50;;;;;;;12.68;100.00;99246.53;5031830;28;20045;-86
2022/11/10 03:20:22;;;;;;;7.85;1.95;;;;;;;12.74;100.00;99246.09;5032920;28;20049;-85
2022/11/10 03:22:48;;;;;;;4.10;1.33;;;;;;;12.70;100.00;99248.09;5020373;28;20053;-86
2022/11/10 03:25:15;;;;;;;4.25;1.15;;;;;;;12.77;100.00;99243.25;5022151;28;20046;-86
2022/11/10 03:27:42;;;;;;;7.97;1.73;;;;;;;12.88;100.00;99264.34;5023726;28;20049;-86
2022/11/10 03:30:09;;;;;;;5.53;1.50;;;;;;;12.87;100.00;99259.19;5031515;28;20054;-87
2022/11/10 03:32:36;;;;;;;6.90;1.70;;;;;;;12.83;100.00;99255.94;5025541;28;20042;-86
2022/11/10 03:35:03;;;;;;;7.15;1.90;;;;;;;12.89;100.00;99244.16;5016329;28;20046;-86
2022/11/10 03:37:30;;;;;;;3.67;1.27;;;;;;;12.99;100.00;99236.47;5020409;28;20380;-87
2022/11/10 03:39:56;;;;;;;4.40;1.42;;;;;;;13.08;100.00;99226.16;5017382;28;20041;-86
2022/11/10 03:42:23;;;;;;;3.90;1.25;;;;;;;12.99;100.00;99221.53;5031487;28;20549;-87
2022/11/10 03:44:50;;;;;;;4.18;1.35;;;;;;;13.15;100.00;99221.25;5018087;28;20045;-87
2022/11/10 03:47:16;;;;;;;3.83;1.30;;;;;;;13.19;100.00;99214.00;5030216;28;20095;-87
2022/11/10 03:49:43;;;;;;;5.82;1.92;;;;;;;12.99;100.00;99223.34;5022340;28;20468;-87
2022/11/10 03:52:10;;;;;;;4.07;1.30;;;;;;;12.90;100.00;99219.56;5025249;28;20050;-87
2022/11/10 03:54:37;;;;;;;4.72;1.20;;;;;;;13.00;100.00;99222.41;5029759;28;20052;-86
2022/11/10 03:57:03;;;;;;;5.47;1.30;;;;;;;13.20;100.00;99215.69;5031505;28;20049;-87
2022/11/10 03:59:31;;;;;;;7.88;1.60;;;;;;;13.10;100.00;99205.00;5032911;28;20045;-87
2022/11/10 04:01:57;;;;;;;5.38;1.40;;;;;;;13.09;100.00;99217.31;5022934;28;20049;-87
2022/11/10 04:09:58;;;;;;;6.55;1.50;;;;;;;13.22;100.00;99204.09;5030333;28;20072;-86
2022/11/10 04:18:19;;;;;;;5.50;1.33;;;;;;;13.41;100.00;99229.09;5017743;28;20049;-86
2022/11/10 04:20:43;;;;;;;6.03;1.73;;;;;;;13.30;100.00;99228.03;5028517;28;20061;-86
2022/11/10 04:23:25;;;;;;;7.85;2.10;;;;;;;13.33;100.00;99244.56;5030240;28;20100;-86
2022/11/10 04:28:46;;;;;;;6.73;1.67;;;;;;;13.61;100.00;99227.59;5029514;28;20050;-85
2022/11/10 04:31:14;;;;;;;10.93;1.90;;;;;;;13.52;100.00;99220.41;5030141;28;20057;-85
2022/11/10 04:33:42;;;;;;;8.20;1.65;;;;;;;13.42;100.00;99228.97;5029402;28;20056;-85
2022/11/10 04:36:11;;;;;;;5.95;1.67;;;;;;;13.61;100.00;99232.88;5029098;28;20942;-86
2022/11/10 04:38:39;;;;;;;7.22;1.70;;;;;;;13.44;100.00;99224.44;5032421;28;20060;-86
2022/11/10 04:41:06;;;;;;;6.82;1.67;;;;;;;13.71;100.00;99236.50;5030665;28;20103;-86
2022/11/10 04:43:34;;;;;;;8.82;1.60;;;;;;;13.48;100.00;99207.47;5030973;28;20045;-86
2022/11/10 04:46:02;;;;;;;7.57;1.88;;;;;;;13.58;100.00;99215.53;5027311;28;20476;-86
2022/11/10 04:48:29;;;;;;;7.20;1.80;;;;;;;13.62;100.00;99211.72;5029857;28;20049;-86
2022/11/10 04:50:56;;;;;;;10.00;2.13;;;;;;;13.50;100.00;99215.25;5031636;28;20053;-86
2022/11/10 04:53:24;;;;;;;12.82;2.00;;;;;;;13.40;100.00;99225.63;5026500;28;20045;-86
2022/11/10 04:55:52;;;;;;;10.75;2.30;;;;;;;13.61;100.00;99227.59;5020993;28;20053;-86
2022/11/10 04:58:19;;;;;;;10.00;2.13;;;;;;;13.53;100.00;99219.44;5029887;28;20053;-86
2022/11/10 05:00:46;;;;;;;9.88;1.80;;;;;;;13.67;100.00;99233.25;5021510;28;20056;-86
2022/11/10 05:03:13;;;;;;;7.80;1.77;;;;;;;13.70;100.00;99237.44;5029145;28;20471;-86
2022/11/10 05:05:40;;;;;;;11.27;2.33;;;;;;;13.64;100.00;99246.63;5033353;28;20049;-85
2022/11/10 05:08:08;;;;;;;11.38;2.63;;;;;;;13.54;100.00;99242.16;5019254;28;20464;-86
2022/11/10 05:10:36;;;;;;;7.35;2.45;;;;;;;13.56;100.00;99240.25;5030638;28;20484;-87
2022/11/10 05:13:04;;;;;;;6.85;1.98;;;;;;;13.70;100.00;99241.88;5030258;28;20072;-87
2022/11/10 05:15:31;;;;;;;13.27;2.17;;;;;;;13.46;100.00;99203.31;5030847;28;20507;-86
2022/11/10 05:17:59;;;;;;;11.23;3.10;;;;;;;13.42;100.00;99210.56;5027146;28;20184;-87
2022/11/10 05:20:26;;;;;;;12.70;2.90;;;;;;;13.45;100.00;99209.50;5028367;28;20542;-87
2022/11/10 05:25:41;;;;;;;10.07;2.60;;;;;;;13.58;100.00;99226.06;5023811;28;20046;-86
2022/11/10 05:28:09;;;;;;;15.18;3.17;;;;;;;13.55;100.00;99212.31;5010451;28;20057;-87
2022/11/10 05:30:36;;;;;;;14.02;2.25;;;;;;;13.62;100.00;99193.31;5027716;28;20056;-87
2022/11/10 05:33:04;;;;;;;15.18;2.60;;;;;;;13.56;100.00;99213.97;5019199;28;20376;-86
2022/11/10 05:35:32;;;;;;;13.65;2.38;;;;;;;13.74;100.00;99202.09;5015937;28;20061;-85
2022/11/10 05:37:59;;;;;;;14.77;2.67;;;;;;;13.64;100.00;99195.84;5026728;28;20046;-86
2022/11/10 05:40:26;;;;;;;12.30;2.83;;;;;;;13.63;100.00;99228.31;5019980;28;20108;-86
2022/11/10 05:42:53;;;;;;;13.07;2.92;;;;;;;13.74;100.00;99231.03;5025387;28;20049;-86
2022/11/10 05:45:21;;;;;;;13.20;3.10;;;;;;;13.66;100.00;99262.31;5025398;28;20049;-86
2022/11/10 05:47:49;;;;;;;10.98;2.15;;;;;;;13.72;100.00;99261.84;5027048;28;20572;-87
2022/11/10 05:50:17;;;;;;;16.13;2.95;;;;;;;13.77;100.00;99272.84;5021835;28;20459;-87
2022/11/10 05:52:46;;;;;;;11.07;2.58;;;;;;;13.68;100.00;99261.22;5027436;28;20049;-87
2022/11/10 05:55:18;;;;;;;15.32;3.22;;;;;;;13.71;100.00;99256.72;5020389;28;20050;-86
2022/11/10 05:57:46;;;;;;;12.48;2.88;;;;;;;13.46;100.00;99237.47;5017582;28;20053;-86
2022/11/10 06:00:15;;;;;;;12.68;2.58;;;;;;;13.53;100.00;99224.69;5042570;28;20046;-87
2022/11/10 06:02:43;;;;;;;14.93;3.58;;;;;;;13.47;100.00;99249.66;5031031;28;20053;-87
2022/11/10 06:05:10;;;;;;;14.77;2.78;;;;;;;13.86;100.00;99250.28;5028586;28;20447;-86
2022/11/10 06:07:37;;;;;;;14.77;3.00;;;;;;;13.80;100.00;99235.81;5029911;28;20132;-87
2022/11/10 06:10:05;;;;;;;16.33;2.67;;;;;;;13.71;100.00;99236.50;5031516;28;20049;-88
2022/11/10 06:12:32;;;;;;;17.77;2.35;;;;;;;13.80;100.00;99269.16;5032557;28;20050;-90
2022/11/10 06:14:58;;;;;;;11.90;3.03;;;;;;;13.70;100.00;99221.66;5034116;28;20381;-90
2022/11/10 06:17:25;;;;;;;17.23;3.40;;;;;;;13.66;100.00;99236.00;5034221;28;20103;-90
2022/11/10 06:19:52;;;;;;;16.77;3.28;;;;;;;13.85;100.00;99246.00;5033902;28;20049;-89
2022/11/10 06:22:19;;;;;;;12.18;3.03;;;;;;;13.84;100.00;99253.03;5033147;28;20403;-89
2022/11/10 06:24:45;;;;;;;11.38;2.85;;;;;;;13.78;100.00;99236.88;5032668;28;20057;-90
2022/11/10 06:27:13;;;;;;;13.77;3.13;;;;;;;13.99;100.00;99227.38;5033347;28;20119;-89
2022/11/10 06:29:40;;;;;;;13.30;2.80;;;;;;;14.26;100.00;99236.75;5031466;28;20049;-89
2022/11/10 06:32:06;;;;;;;15.98;2.83;;;;;;;14.14;100.00;99224.53;5032642;28;20057;-84
2022/11/10 06:34:33;;;;;;;15.73;2.95;;;;;;;14.13;100.00;99236.00;5030540;28;20053;-85
2022/11/10 06:37:00;;;;;;;19.83;3.25;;;;;;;13.84;100.00;99244.31;5030624;28;20053;-90
2022/11/10 06:39:27;;;;;;;16.33;2.85;;;;;;;13.79;100.00;99252.56;5046289;28;20061;-90
2022/11/10 06:41:53;;;;;;;14.65;2.80;;;;;;;13.47;100.00;99249.66;5031366;28;20084;-90
2022/11/10 06:44:20;;;;;;;12.40;2.92;;;;;;;13.58;100.00;99252.34;5032111;28;20443;-86
2022/11/10 06:46:47;;;;;;;15.93;2.80;;;;;;;13.43;100.00;99214.03;5028744;28;20048;-86
2022/11/10 06:49:13;;;;;;;11.52;2.42;;;;;;;13.66;100.00;99257.88;5026449;28;20060;-87
2022/11/10 06:51:40;;;;;;;16.25;3.17;;;;;;;13.59;100.00;99272.41;5031451;28;20049;-85
2022/11/10 06:54:07;;;;;;;14.05;3.03;;;;;;;13.26;100.00;99204.72;5027189;28;20045;-85
2022/11/10 06:56:34;;;;;;;18.88;3.25;;;;;;;13.51;100.00;99253.75;5031381;28;20088;-85
2022/11/10 06:59:00;;;;;;;14.80;3.08;;;;;;;13.46;100.00;99245.38;5028721;28;20135;-85
2022/11/10 07:01:27;;;;;;;15.48;2.75;;;;;;;13.33;100.00;99220.91;5030256;28;20057;-85
2022/11/10 07:03:54;;;;;;;13.48;3.13;;;;;;;13.45;100.00;99246.31;5031537;28;20080;-87
2022/11/10 07:06:41;;;;;;;20.60;3.47;;;;;;;13.23;100.00;99228.63;5027968;28;20053;-86
2022/11/10 07:09:07;;;;;;;16.52;3.25;;;;;;;13.45;100.00;99254.19;5029648;28;20041;-87
2022/11/10 07:11:34;;;;;;;17.48;3.90;;;;;;;13.46;100.00;99253.25;5025254;28;20054;-87
2022/11/10 07:14:01;;;;;;;19.30;4.32;;;;;;;13.51;100.00;99277.44;5030557;28;20049;-86
2022/11/10 07:16:28;;;;;;;11.35;3.10;;;;;;;13.43;100.00;99246.41;5029628;28;20132;-86
2022/11/10 07:18:55;;;;;;;14.00;3.28;;;;;;;13.47;100.00;99270.69;5028940;28;20045;-89
2022/11/10 07:21:21;;;;;;;15.55;2.25;;;;;;;13.63;100.00;99265.16;5041405;28;20053;-87
2022/11/10 07:23:48;;;;;;;11.75;2.53;;;;;;;13.64;100.00;99275.56;5029743;28;20049;-87
2022/11/10 07:26:15;;;;;;;14.27;2.75;;;;;;;13.54;100.00;99257.94;5028877;28;20628;-87
2022/11/10 07:28:42;;;;;;;12.98;2.85;;;;;;;13.52;100.00;99263.31;5027218;28;20065;-87
2022/11/10 07:31:08;;;;;;;11.23;2.40;;;;;;;13.62;100.00;99264.31;5026562;28;20107;-87
2022/11/10 07:33:35;;;;;;;18.80;4.35;;;;;;;13.41;100.00;99263.25;5027943;28;20357;-87
2022/11/10 07:36:03;;;;;;;16.35;4.45;;;;;;;13.37;100.00;99274.94;5019514;28;20066;-87
2022/11/10 07:38:29;;;;;;;14.25;2.78;;;;;;;13.36;100.00;99249.63;5032064;28;20049;-87
2022/11/10 07:40:56;;;;;;;15.52;2.90;;;;;;;13.35;100.00;99250.56;5032256;28;20061;-88
2022/11/10 07:43:24;;;;;;;19.02;3.85;;;;;;;13.07;100.00;99205.25;5033164;28;20054;-87
2022/11/10 07:45:52;;;;;;;17.98;2.88;;;;;;;13.43;100.00;99253.47;5025496;28;20105;-87
2022/11/10 07:48:19;;;;;;;15.27;2.97;;;;;;;13.47;100.00;99258.41;5033254;28;20427;-87
2022/11/10 07:50:46;;;;;;;17.25;3.03;;;;;;;13.58;100.00;99254.13;5031524;28;20056;-87
2022/11/10 07:53:15;;;;;;;15.50;3.00;;;;;;;13.67;100.00;99269.25;5031761;28;20045;-87
2022/11/10 07:55:44;;;;;;;16.90;3.42;;;;;;;13.48;100.00;99252.19;5029888;28;20045;-87
2022/11/10 07:58:12;;;;;;;13.60;3.47;;;;;;;13.65;100.00;99250.94;5024403;28;20046;-87
2022/11/10 08:00:40;;;;;;;22.33;3.55;;;;;;;13.65;100.00;99250.94;5029222;28;20060;-88
2022/11/10 08:03:11;;;;;;;22.20;3.80;;;;;;;13.77;100.00;99236.03;5031112;28;20045;-88
2022/11/10 08:05:38;;;;;;;15.20;3.00;;;;;;;13.67;100.00;99209.59;5030568;28;20099;-87
2022/11/10 08:08:05;;;;;;;16.33;3.45;;;;;;;13.76;100.00;99246.69;5032329;28;20049;-87
2022/11/10 08:10:33;;;;;;;16.13;3.00;;;;;;;13.71;100.00;99241.75;5028180;28;20050;-87
2022/11/10 08:13:03;;;;;;;15.23;3.70;;;;;;;13.83;100.00;99258.44;5032146;28;20518;-87
2022/11/10 08:15:31;;;;;;;13.48;2.67;;;;;;;13.90;100.00;99275.44;5027106;28;20053;-87
2022/11/10 08:18:07;;;;;;;20.10;3.05;;;;;;;13.76;100.00;99273.81;5031648;28;20446;-87
2022/11/10 08:20:34;;;;;;;17.45;3.20;;;;;;;13.81;100.00;99289.25;5032330;28;20415;-87
2022/11/10 08:23:03;;;;;;;13.73;3.08;;;;;;;13.90;100.00;99261.41;5032035;28;20053;-87
2022/11/10 08:25:33;;;;;;;13.70;3.10;;;;;;;13.84;100.00;99278.50;5030107;28;20057;-87
2022/11/10 08:28:12;;;;;;;13.73;3.25;;;;;;;13.78;100.00;99303.47;5031901;28;20527;-87
2022/11/10 08:30:42;;;;;;;13.13;3.13;;;;;;;13.83;100.00;99346.06;5035689;28;20133;-87
2022/11/10 08:33:10;;;;;;;11.55;4.28;;;;;;;13.89;100.00;99350.03;5032165;28;20450;-87
2022/11/10 08:35:42;;;;;;;11.60;2.65;;;;;;;13.81;100.00;99323.44;5023962;28;20049;-87
2022/11/10 08:38:21;;;;;;;11.55;3.35;;;;;;;13.88;100.00;99314.16;5032744;28;20484;-88
2022/11/10 08:40:48;;;;;;;16.38;3.25;;;;;;;13.98;100.00;99286.19;5030814;28;20049;-88
2022/11/10 08:43:16;;;;;;;12.75;2.53;;;;;;;14.13;100.00;99333.38;5020706;28;20054;-87
2022/11/10 08:45:44;;;;;;;10.18;2.88;;;;;;;14.09;100.00;99337.19;5031236;28;20115;-88
2022/11/10 08:48:19;;;;;;;13.60;3.35;;;;;;;14.02;100.00;99342.06;5031230;28;20057;-87
2022/11/10 08:50:48;;;;;;;12.80;3.05;;;;;;;14.08;100.00;99353.94;5031645;28;20049;-88
2022/11/10 08:53:18;;;;;;;16.05;2.50;;;;;;;14.08;100.00;99336.38;5019769;28;20055;-88
2022/11/10 08:55:45;;;;;;;12.55;2.72;;;;;;;14.03;100.00;99309.56;5021073;28;20419;-88
2022/11/10 08:58:18;;;;;;;14.57;2.95;;;;;;;13.89;100.00;99320.28;5027492;28;20049;-87
2022/11/10 09:00:45;;;;;;;16.42;3.20;;;;;;;13.78;100.00;99307.91;5030343;28;20057;-87
2022/11/10 09:03:17;;;;;;;14.30;3.00;;;;;;;13.71;100.00;99296.16;5032325;28;20049;-88
2022/11/10 09:05:46;;;;;;;12.10;2.97;;;;;;;13.86;100.00;99306.41;5029440;28;20061;-87
2022/11/10 09:08:13;;;;;;;10.65;2.72;;;;;;;14.04;100.00;99333.13;5030861;28;20454;-87
2022/11/10 09:10:43;;;;;;;15.98;2.97;;;;;;;14.18;100.00;99347.03;5031391;28;20054;-87
2022/11/10 09:13:12;;;;;;;16.30;2.92;;;;;;;13.99;100.00;99360.75;5031139;28;20049;-88
2022/11/10 09:15:40;;;;;;;15.80;3.47;;;;;;;14.25;100.00;99348.25;5026540;28;20559;-88
2022/11/10 09:18:08;;;;;;;16.83;2.70;;;;;;;14.45;100.00;99352.03;5029354;28;20057;-87
2022/11/10 09:20:36;;;;;;;17.20;4.50;;;;;;;14.39;100.00;99336.69;5029589;28;20127;-87
2022/11/10 09:23:15;;;;;;;10.82;2.35;;;;;;;14.11;100.00;99378.25;5031611;28;20049;-88
2022/11/10 09:25:47;;;;;;;17.50;3.25;;;;;;;14.16;100.00;99397.16;5030837;28;20446;-87
2022/11/10 09:28:15;;;;;;;16.47;3.23;;;;;;;14.22;100.00;99367.75;5030839;28;20056;-87
2022/11/10 09:30:45;;;;;;;15.55;2.95;;;;;;;14.03;100.00;99378.81;5025825;28;20103;-87
2022/11/10 09:33:12;;;;;;;15.20;4.22;;;;;;;14.23;100.00;99395.75;5022261;28;20115;-87
2022/11/10 09:35:39;;;;;;;13.73;2.95;;;;;;;14.34;100.00;99387.09;5028208;28;20045;-86
2022/11/10 09:38:06;;;;;;;11.13;2.97;;;;;;;14.63;100.00;99386.72;5025610;28;20554;-87
2022/11/10 09:41:10;;;;;;;14.20;3.13;;;;;;;14.35;100.00;99377.38;5034794;28;20050;-87
2022/11/10 09:43:45;;;;;;;13.57;2.70;;;;;;;14.36;100.00;99369.38;5002889;28;20433;-87
2022/11/10 09:46:39;;;;;;;13.80;3.42;;;;;;;14.56;100.00;99388.94;5030193;28;20103;-86
2022/11/10 09:49:10;;;;;;;;;;;;;;;14.51;100.00;99361.25;5037113;28;20045;-88
2022/11/10 09:51:41;;;;;;;14.85;2.97;;;;;;;14.50;100.00;99357.81;5031825;28;19922;-87
2022/11/10 09:54:17;;;;;;;13.30;2.60;;;;;;;14.60;100.00;99381.66;5025311;28;20381;-87
2022/11/10 09:56:43;;;;;;;13.30;2.72;;;;;;;14.50;100.00;99418.38;5036290;28;20053;-87
2022/11/10 09:59:23;;;;;;;14.80;2.58;;;;;;;14.54;100.00;99401.38;5032086;28;20380;-87
2022/11/10 10:02:01;;;;;;;13.55;2.50;;;;;;;14.46;100.00;99360.78;5023398;28;20042;-88
2022/11/10 10:04:31;;;;;;;13.65;2.63;;;;;;;14.60;100.00;99414.09;5027555;28;20066;-87
2022/11/10 10:07:10;;;;;;;11.75;2.83;;;;;;;14.65;100.00;99405.03;5036418;28;20053;-87
2022/11/10 10:10:02;;;;;;;13.05;2.97;;;;;;;14.93;100.00;99390.59;5036244;28;20482;-87
2022/11/10 10:13:04;;;;;;;12.25;3.08;;;;;;;14.76;100.00;99376.91;5040782;28;20046;-88
2022/11/10 10:15:37;;;;;;;10.70;2.72;;;;;;;14.65;100.00;99379.53;5025588;28;20474;-89
2022/11/10 10:18:06;;;;;;;13.93;3.57;;;;;;;14.82;100.00;99388.78;5036735;28;20073;-88
2022/11/10 10:20:38;;;;;;;12.35;2.35;;;;;;;14.83;100.00;99353.56;5035604;28;20053;-88
2022/11/10 10:23:22;;;;;;;9.73;2.25;;;;;;;14.55;100.00;99310.84;5035289;28;20474;-87
2022/11/10 10:26:14;;;;;;;12.35;3.45;;;;;;;14.84;100.00;99357.00;5027336;28;20115;-88
2022/11/10 10:28:44;;;;;;;11.55;3.22;;;;;;;14.73;100.00;99360.47;5034958;28;20053;-88
2022/11/10 10:31:26;;;;;;;9.98;2.35;;;;;;;15.04;100.00;99376.56;5033866;28;20057;-88
2022/11/10 10:33:53;;;;;;;13.70;2.88;;;;;;;15.06;100.00;99378.13;5033544;28;20046;-88
2022/11/10 10:36:26;;;;;;;8.43;2.28;;;;;;;14.96;100.00;99390.34;5033149;28;20046;-88
2022/11/10 10:39:04;;;;;;;11.68;2.38;;;;;;;14.54;100.00;99338.16;5033912;28;20049;-88
2022/11/10 10:41:33;;;;;;;14.25;2.45;;;;;;;14.96;100.00;99377.16;5031107;28;20557;-87
2022/11/10 10:44:08;;;;;;;14.45;2.63;;;;;;;15.10;100.00;99369.03;5032999;28;20041;-88
2022/11/10 10:46:50;;;;;;;9.20;2.22;;;;;;;14.93;100.00;99351.06;5024847;28;20054;-87
2022/11/10 10:49:21;;;;;;;14.30;3.05;;;;;;;15.12;100.00;99390.84;5029924;28;20411;-89
2022/11/10 10:52:11;;;;;;;15.15;2.45;;;;;;;15.13;100.00;99403.03;5030508;28;20076;-89
2022/11/10 10:54:39;;;;;;;8.88;2.22;;;;;;;15.25;100.00;99397.78;5031548;28;20072;-88
2022/11/10 10:57:23;;;;;;;10.15;1.98;;;;;;;15.51;100.00;99383.38;5026341;28;20069;-88
2022/11/10 10:59:51;;;;;;;9.98;2.03;;;;;;;15.51;100.00;99393.94;5029214;28;20435;-88
2022/11/10 11:02:29;;;;;;;10.23;2.80;;;;;;;15.10;100.00;99397.16;5025507;28;20054;-88
2022/11/10 11:05:13;;;;;;;9.25;2.25;;;;;;;15.10;100.00;99363.75;5028979;28;20069;-88
2022/11/10 11:07:41;;;;;;;11.38;2.22;;;;;;;15.20;100.00;99369.13;5042971;28;20144;-88
2022/11/10 11:10:20;;;;;;;9.95;2.17;;;;;;;15.10;100.00;99387.50;5034930;28;20056;-87
2022/11/10 11:12:47;;;;;;;11.07;2.65;;;;;;;15.38;100.00;99395.84;5034757;28;20053;-88
2022/11/10 11:15:28;;;;;;;6.57;1.75;;;;;;;15.41;100.00;99371.06;5034091;28;20049;-88
2022/11/10 11:17:56;;;;;;;14.90;2.33;;;;;;;15.54;100.00;99398.13;5035073;28;20399;-88
2022/11/10 11:20:45;;;;;;;11.13;2.45;;;;;;;15.11;100.00;99349.59;5033291;28;20056;-88
2022/11/10 11:23:35;;;;;;;10.95;2.05;;;;;;;15.63;100.00;99399.19;5033758;28;20056;-87
2022/11/10 11:26:16;;;;;;;10.90;2.25;;;;;;;15.62;100.00;99387.78;5020174;28;20476;-87
2022/11/10 11:29:01;;;;;;;7.00;1.98;;;;;;;15.72;100.00;99388.75;5027111;28;20464;-87
2022/11/10 11:31:48;;;;;;;9.10;2.03;;;;;;;15.83;100.00;99411.66;5026275;28;20068;-87
2022/11/10 11:34:21;;;;;;;11.60;2.80;;;;;;;15.82;100.00;99435.53;5029206;28;20041;-88
2022/11/10 11:37:17;;;;;;;9.25;2.25;;;;;;;15.80;100.00;99418.97;5032900;28;20057;-88
2022/11/10 11:40:19;;;;;;;11.48;2.38;;;;;;;16.01;100.00;99406.69;5015703;28;20061;-88
2022/11/10 11:43:21;;;;;;;11.10;1.98;;;;;;;15.87;100.00;99417.53;5028481;28;20124;-88
2022/11/10 11:46:03;;;;;;;12.40;3.33;;;;;;;15.92;100.00;99420.63;4989584;28;20416;-88
2022/11/10 11:48:46;;;;;;;9.77;2.10;;;;;;;16.03;100.00;99420.59;5029396;28;20060;-88
2022/11/10 11:51:13;;;;;;;10.93;2.20;;;;;;;15.89;100.00;99428.78;5032791;28;20128;-88
2022/11/10 11:53:55;;;;;;;13.30;3.60;;;;;;;15.62;100.00;99401.00;5032714;28;20052;-88
2022/11/10 11:56:40;;;;;;;12.15;2.00;;;;;;;15.93;100.00;99431.03;5031657;28;20415;-88